createdAt,value
2018-05-17T00:03:58.839Z,16.73
2018-05-17T00:08:32.335Z,16.60
2018-05-17T00:13:05.528Z,31.43
2018-05-17T00:17:38.752Z,18.23
2018-05-17T00:22:11.955Z,25.70
2018-05-17T00:26:45.149Z,16.37
2018-05-17T00:31:19.118Z,14.67
2018-05-17T00:35:52.286Z,17.70
2018-05-17T00:40:26.238Z,14.90
2018-05-17T00:44:59.408Z,13.20
2018-05-17T00:49:33.370Z,14.50
2018-05-17T00:54:06.535Z,13.07
2018-05-17T00:58:40.501Z,13.83
2018-05-17T01:03:13.690Z,13.80
2018-05-17T01:07:47.043Z,15.00
2018-05-17T01:12:20.230Z,18.87
2018-05-17T01:16:53.427Z,17.73
2018-05-17T01:21:26.615Z,16.60
2018-05-17T01:25:59.803Z,14.00
2018-05-17T01:30:33.734Z,19.30
2018-05-17T01:35:07.818Z,15.17
2018-05-17T01:39:40.917Z,15.35
2018-05-17T01:44:14.134Z,18.00
2018-05-17T01:48:47.332Z,19.75
2018-05-17T01:53:20.526Z,19.98
2018-05-17T01:57:53.776Z,16.98
2018-05-17T02:02:26.970Z,16.92
2018-05-17T02:07:00.161Z,17.60
2018-05-17T02:11:33.351Z,19.20
2018-05-17T02:16:06.547Z,20.07
2018-05-17T02:20:39.735Z,22.57
2018-05-17T02:25:13.022Z,22.03
2018-05-17T02:29:46.957Z,20.47
2018-05-17T02:34:21.047Z,17.73
2018-05-17T02:38:54.245Z,22.60
2018-05-17T02:43:27.478Z,21.77
2018-05-17T02:48:00.651Z,21.43
2018-05-17T02:52:33.841Z,21.63
2018-05-17T02:57:07.165Z,24.43
2018-05-17T03:01:40.538Z,26.10
2018-05-17T03:06:13.748Z,26.03
2018-05-17T03:10:46.942Z,29.00
2018-05-17T03:15:20.900Z,30.53
2018-05-17T03:19:54.086Z,29.73
2018-05-17T03:24:27.279Z,31.03
2018-05-17T03:29:01.207Z,33.33
2018-05-17T03:33:35.164Z,35.33
2018-05-17T03:38:08.326Z,36.30
2018-05-17T03:42:42.282Z,35.90
2018-05-17T03:47:15.478Z,32.83
2018-05-17T03:51:48.666Z,32.27
2018-05-17T03:56:22.639Z,31.60
2018-05-17T04:01:07.664Z,30.83
2018-05-17T04:10:49.391Z,31.12
2018-05-17T04:15:22.581Z,30.58
2018-05-17T04:19:55.774Z,29.33
2018-05-17T04:24:28.970Z,30.53
2018-05-17T04:29:02.373Z,29.40
2018-05-17T04:33:35.546Z,28.83
2018-05-17T04:38:09.514Z,28.40
2018-05-17T04:42:42.712Z,28.15
2018-05-17T04:47:15.907Z,27.67
2018-05-17T04:51:49.110Z,25.97
2018-05-17T04:56:23.067Z,27.00
2018-05-17T05:00:56.259Z,26.83
2018-05-17T05:05:29.524Z,25.08
2018-05-17T05:10:02.719Z,26.85
2018-05-17T05:14:35.941Z,25.15
2018-05-17T05:19:09.969Z,24.73
2018-05-17T05:23:43.905Z,23.90
2018-05-17T05:28:17.866Z,23.92
2018-05-17T05:32:51.078Z,23.58
2018-05-17T05:37:24.250Z,23.65
2018-05-17T05:41:57.446Z,22.60
2018-05-17T05:46:30.666Z,23.42
2018-05-17T05:51:03.862Z,23.48
2018-05-17T05:55:37.062Z,22.52
2018-05-17T06:00:11.027Z,22.37
2018-05-17T06:04:44.218Z,22.42
2018-05-17T06:09:17.403Z,23.15
2018-05-17T06:13:51.366Z,22.40
2018-05-17T06:18:24.554Z,22.10
2018-05-17T06:22:57.760Z,21.77
2018-05-17T06:27:31.263Z,20.62
2018-05-17T06:32:04.485Z,23.42
2018-05-17T06:36:37.678Z,20.83
2018-05-17T06:41:10.851Z,20.20
2018-05-17T06:45:44.143Z,19.80
2018-05-17T06:50:17.338Z,21.42
2018-05-17T06:54:50.507Z,20.98
2018-05-17T06:59:23.698Z,18.85
2018-05-17T07:03:57.655Z,18.02
2018-05-17T07:08:30.846Z,17.73
2018-05-17T07:13:04.093Z,17.80
2018-05-17T07:17:37.282Z,17.55
2018-05-17T07:22:10.475Z,16.45
2018-05-17T07:26:43.671Z,16.45
2018-05-17T07:31:16.874Z,17.65
2018-05-17T07:35:50.038Z,15.85
2018-05-17T07:40:23.245Z,15.45
2018-05-17T07:44:56.442Z,15.30
2018-05-17T07:49:29.669Z,15.05
2018-05-17T07:54:03.626Z,12.88
2018-05-17T07:58:36.839Z,13.90
2018-05-17T08:03:10.010Z,14.15
2018-05-17T08:07:43.207Z,13.23
2018-05-17T08:12:16.407Z,13.60
2018-05-17T08:16:49.600Z,12.55
2018-05-17T08:21:22.793Z,12.02
2018-05-17T08:25:56.053Z,11.20
2018-05-17T08:30:30.014Z,12.07
2018-05-17T08:35:03.218Z,11.15
2018-05-17T08:39:36.441Z,11.52
2018-05-17T08:44:09.635Z,10.25
2018-05-17T08:48:42.800Z,10.25
2018-05-17T08:53:16.758Z,9.30
2018-05-17T08:57:49.946Z,9.43
2018-05-17T09:02:23.897Z,9.20
2018-05-17T09:06:57.094Z,8.73
2018-05-17T09:11:30.268Z,9.13
2018-05-17T09:16:03.470Z,9.63
2018-05-17T09:20:36.629Z,9.48
2018-05-17T09:25:09.819Z,8.65
2018-05-17T09:29:43.050Z,9.15
2018-05-17T09:34:16.242Z,9.55
2018-05-17T09:38:50.307Z,7.70
2018-05-17T09:43:23.502Z,8.85
2018-05-17T09:47:56.690Z,8.68
2018-05-17T09:52:29.918Z,8.93
2018-05-17T09:57:03.095Z,9.07
2018-05-17T10:01:36.302Z,10.32
2018-05-17T10:06:09.466Z,9.45
2018-05-17T10:10:44.419Z,9.82
2018-05-17T10:15:18.375Z,11.45
2018-05-17T10:19:51.569Z,9.20
2018-05-17T10:24:24.763Z,10.23
2018-05-17T10:28:58.723Z,17.37
2018-05-17T10:33:31.972Z,11.68
2018-05-17T10:38:05.098Z,8.32
2018-05-17T10:42:39.338Z,8.00
2018-05-17T10:47:12.530Z,8.35
2018-05-17T10:51:46.622Z,8.00
2018-05-17T10:56:19.903Z,6.95
2018-05-17T11:00:53.071Z,8.73
2018-05-17T11:05:27.030Z,9.77
2018-05-17T11:10:00.222Z,9.90
2018-05-17T11:14:33.427Z,7.60
2018-05-17T11:19:06.623Z,7.32
2018-05-17T11:23:40.578Z,8.23
2018-05-17T11:28:13.746Z,7.75
2018-05-17T11:32:47.704Z,9.73
2018-05-17T11:37:20.906Z,8.00
2018-05-17T11:41:54.095Z,8.68
2018-05-17T11:46:28.068Z,7.93
2018-05-17T11:51:01.234Z,8.93
2018-05-17T11:55:34.422Z,7.28
2018-05-17T12:00:07.643Z,7.45
2018-05-17T12:04:41.155Z,6.97
2018-05-17T12:09:14.334Z,6.20
2018-05-17T12:13:47.537Z,6.95
2018-05-17T12:18:21.474Z,6.07
2018-05-17T12:22:55.451Z,4.97
2018-05-17T12:27:28.644Z,5.30
2018-05-17T12:32:01.846Z,5.55
2018-05-17T12:36:35.098Z,4.90
2018-05-17T12:41:09.206Z,4.87
2018-05-17T12:45:42.407Z,5.10
2018-05-17T12:50:15.735Z,6.00
2018-05-17T12:54:48.874Z,5.40
2018-05-17T12:59:22.798Z,5.07
2018-05-17T13:03:56.845Z,4.62
2018-05-17T13:08:30.047Z,4.12
2018-05-17T13:13:03.249Z,4.25
2018-05-17T13:17:36.433Z,4.22
2018-05-17T13:22:09.610Z,4.30
2018-05-17T13:26:42.843Z,4.10
2018-05-17T13:31:16.031Z,4.18
2018-05-17T13:35:49.234Z,4.22
2018-05-17T13:40:22.432Z,3.90
2018-05-17T13:44:55.969Z,3.95
2018-05-17T13:49:29.154Z,4.57
2018-05-17T13:54:02.341Z,3.72
2018-05-17T13:58:35.526Z,3.67
2018-05-17T14:03:08.722Z,3.30
2018-05-17T14:07:41.885Z,3.40
2018-05-17T14:12:15.074Z,3.87
2018-05-17T14:16:48.272Z,3.45
2018-05-17T14:21:21.464Z,3.17
2018-05-17T14:25:54.666Z,4.03
2018-05-17T14:30:27.851Z,3.50
2018-05-17T14:35:01.856Z,3.50
2018-05-17T14:39:35.043Z,3.70
2018-05-17T14:44:08.551Z,3.85
2018-05-17T14:48:41.758Z,4.22
2018-05-17T14:53:14.949Z,4.50
2018-05-17T14:57:48.190Z,4.72
2018-05-17T15:02:21.378Z,4.90
2018-05-17T15:06:54.567Z,4.57
2018-05-17T15:11:27.771Z,4.62
2018-05-17T15:16:00.970Z,3.78
2018-05-17T15:20:34.126Z,5.20
2018-05-17T15:25:07.329Z,5.12
2018-05-17T15:29:41.349Z,3.70
2018-05-17T15:34:15.608Z,4.00
2018-05-17T15:38:49.501Z,3.90
2018-05-17T15:43:22.669Z,4.10
2018-05-17T15:47:55.874Z,4.25
2018-05-17T15:52:29.071Z,4.05
2018-05-17T15:57:02.258Z,4.25
2018-05-17T16:01:36.212Z,4.20
2018-05-17T16:06:09.410Z,4.00
2018-05-17T16:10:42.593Z,4.40
2018-05-17T16:15:16.631Z,3.85
2018-05-17T16:19:49.763Z,3.83
2018-05-17T16:24:22.987Z,3.58
2018-05-17T16:28:56.475Z,3.87
2018-05-17T16:33:29.769Z,3.62
2018-05-17T16:38:03.125Z,3.30
2018-05-17T16:42:36.611Z,3.72
2018-05-17T16:47:10.131Z,4.35
2018-05-17T16:51:43.327Z,4.18
2018-05-17T16:56:16.536Z,3.72
2018-05-17T17:00:49.700Z,5.00
2018-05-17T17:05:22.891Z,4.20
2018-05-17T17:09:56.080Z,4.68
2018-05-17T17:14:29.262Z,4.30
2018-05-17T17:19:02.442Z,4.37
2018-05-17T17:23:36.400Z,5.20
2018-05-17T17:28:09.586Z,4.18
2018-05-17T17:32:42.766Z,4.60
2018-05-17T17:37:17.002Z,4.50
2018-05-17T17:41:53.842Z,3.87
2018-05-17T17:46:30.466Z,4.10
2018-05-17T17:51:04.757Z,4.10
2018-05-17T17:55:39.046Z,4.45
2018-05-17T18:00:12.997Z,3.85
2018-05-17T18:04:46.198Z,3.90
2018-05-17T18:09:19.554Z,5.35
2018-05-17T18:13:52.718Z,3.50
2018-05-17T18:18:25.925Z,3.70
2018-05-17T18:22:59.104Z,4.15
2018-05-17T18:27:33.059Z,3.60
2018-05-17T18:32:06.266Z,3.62
2018-05-17T18:36:39.431Z,3.28
2018-05-17T18:41:13.402Z,3.22
2018-05-17T18:45:46.643Z,4.60
2018-05-17T18:50:19.838Z,3.53
2018-05-17T18:54:53.039Z,5.10
2018-05-17T18:59:26.231Z,3.53
2018-05-17T19:03:59.471Z,3.40
2018-05-17T19:08:32.647Z,3.58
2018-05-17T19:13:05.846Z,3.45
2018-05-17T19:17:39.051Z,3.22
2018-05-17T19:22:12.242Z,3.55
2018-05-17T19:26:46.194Z,3.62
2018-05-17T19:31:19.437Z,3.20
2018-05-17T19:35:52.591Z,3.10
2018-05-17T19:40:25.873Z,3.03
2018-05-17T19:44:59.098Z,3.42
2018-05-17T19:49:32.258Z,3.35
2018-05-17T19:54:05.442Z,3.53
2018-05-17T19:58:38.796Z,5.40
2018-05-17T20:03:12.753Z,3.80
2018-05-17T20:07:46.042Z,3.87
2018-05-17T20:12:20.080Z,4.05
2018-05-17T20:16:53.373Z,4.55
2018-05-17T20:21:27.339Z,4.22
2018-05-17T20:26:00.758Z,4.78
2018-05-17T20:30:33.998Z,4.62
2018-05-17T20:35:07.194Z,4.18
2018-05-17T20:39:40.398Z,4.22
2018-05-17T20:44:13.984Z,4.18
2018-05-17T20:48:47.173Z,4.07
2018-05-17T20:53:20.374Z,3.87
2018-05-17T20:57:53.730Z,3.90
2018-05-17T21:02:26.915Z,4.00
2018-05-17T21:07:00.111Z,4.27
2018-05-17T21:11:34.056Z,4.67
2018-05-17T21:16:08.965Z,3.70
2018-05-17T21:20:42.170Z,4.17
2018-05-17T21:25:16.132Z,4.27
2018-05-17T21:29:49.318Z,3.70
2018-05-17T21:34:22.518Z,4.00
2018-05-17T21:38:55.707Z,4.70
2018-05-17T21:43:29.639Z,3.67
2018-05-17T21:48:03.749Z,3.80
2018-05-17T21:52:37.705Z,4.53
2018-05-17T21:57:10.890Z,4.37
2018-05-17T22:01:44.843Z,4.03
2018-05-17T22:06:18.030Z,4.33
2018-05-17T22:10:51.226Z,4.53
2018-05-17T22:15:25.190Z,4.60
2018-05-17T22:19:58.470Z,4.37
2018-05-17T22:24:31.694Z,4.40
2018-05-17T22:29:04.883Z,4.30
2018-05-17T22:33:38.078Z,4.80
2018-05-17T22:38:11.294Z,4.60
2018-05-17T22:42:44.515Z,4.63
2018-05-17T22:47:17.700Z,4.50
2018-05-17T22:51:51.003Z,4.73
2018-05-17T22:56:36.159Z,5.40
2018-05-17T23:01:09.350Z,4.70
2018-05-17T23:05:42.538Z,5.10
2018-05-17T23:10:15.722Z,4.53
2018-05-17T23:14:49.697Z,4.23
2018-05-17T23:19:22.862Z,4.43
2018-05-17T23:23:56.066Z,4.37
2018-05-17T23:28:29.259Z,4.80
2018-05-17T23:33:03.209Z,4.77
2018-05-17T23:37:36.390Z,4.60
2018-05-17T23:42:10.354Z,4.80
2018-05-17T23:46:43.609Z,4.83
2018-05-17T23:51:17.558Z,4.43
2018-05-17T23:55:50.745Z,4.50
